createdAt,value
2018-05-02T00:00:08.232Z,52.83
2018-05-02T00:01:08.239Z,52.83
2018-05-02T00:02:08.219Z,52.64
2018-05-02T00:03:08.214Z,52.73
2018-05-02T00:04:08.207Z,52.93
2018-05-02T00:05:08.956Z,52.73
2018-05-02T00:06:08.195Z,52.83
2018-05-02T00:07:08.189Z,52.83
2018-05-02T00:08:08.178Z,52.93
2018-05-02T00:09:08.171Z,52.93
2018-05-02T00:10:08.165Z,52.83
2018-05-02T00:11:08.161Z,52.83
2018-05-02T00:12:08.155Z,52.73
2018-05-02T00:13:08.149Z,52.83
2018-05-02T00:14:08.144Z,52.73
2018-05-02T00:15:08.133Z,52.64
2018-05-02T00:16:08.126Z,52.83
2018-05-02T00:17:08.121Z,52.83
2018-05-02T00:18:08.123Z,52.64
2018-05-02T00:19:08.113Z,52.73
2018-05-02T00:20:08.107Z,52.93
2018-05-02T00:21:08.096Z,52.83
2018-05-02T00:22:08.092Z,52.83
2018-05-02T00:23:08.085Z,52.93
2018-05-02T00:24:08.075Z,52.83
2018-05-02T00:25:08.070Z,52.83
2018-05-02T00:26:08.067Z,52.83
2018-05-02T00:27:08.062Z,52.93
2018-05-02T00:28:08.050Z,52.83
2018-05-02T00:29:08.046Z,52.83
2018-05-02T00:30:08.070Z,52.83
2018-05-02T00:31:08.032Z,52.64
2018-05-02T00:32:08.025Z,52.83
2018-05-02T00:33:08.020Z,52.93
2018-05-02T00:34:08.074Z,53.03
2018-05-02T00:35:08.007Z,52.73
2018-05-02T00:36:08.000Z,52.83
2018-05-02T00:37:07.993Z,53.03
2018-05-02T00:38:07.988Z,52.83
2018-05-02T00:39:07.979Z,52.73
2018-05-02T00:40:07.972Z,52.73
2018-05-02T00:41:07.969Z,53.03
2018-05-02T00:42:07.964Z,52.64
2018-05-02T00:43:07.955Z,52.73
2018-05-02T00:44:07.952Z,53.03
2018-05-02T00:45:07.940Z,52.83
2018-05-02T00:46:07.938Z,52.73
2018-05-02T00:47:07.933Z,52.83
2018-05-02T00:48:07.923Z,52.93
2018-05-02T00:49:07.920Z,52.83
2018-05-02T00:50:07.915Z,52.83
2018-05-02T00:51:07.905Z,52.83
2018-05-02T00:52:07.892Z,52.93
2018-05-02T00:53:07.892Z,52.83
2018-05-02T00:54:07.886Z,52.83
2018-05-02T00:55:07.883Z,52.93
2018-05-02T00:56:07.876Z,52.83
2018-05-02T00:57:07.870Z,52.83
2018-05-02T00:58:07.860Z,52.73
2018-05-02T00:59:07.850Z,52.64
2018-05-02T01:00:07.845Z,53.03
2018-05-02T01:01:07.840Z,52.64
2018-05-02T01:02:07.834Z,53.22
2018-05-02T01:03:07.828Z,53.03
2018-05-02T01:04:07.823Z,53.22
2018-05-02T01:05:07.818Z,53.13
2018-05-02T01:06:07.812Z,53.03
2018-05-02T01:07:07.804Z,53.13
2018-05-02T01:08:07.796Z,53.03
2018-05-02T01:09:07.790Z,53.13
2018-05-02T01:10:07.784Z,53.03
2018-05-02T01:11:07.782Z,52.93
2018-05-02T01:12:07.771Z,53.13
2018-05-02T01:13:07.765Z,53.22
2018-05-02T01:14:07.773Z,53.22
2018-05-02T01:15:07.751Z,53.22
2018-05-02T01:16:07.749Z,53.22
2018-05-02T01:17:07.739Z,53.03
2018-05-02T01:18:07.734Z,52.55
2018-05-02T01:19:07.726Z,53.13
2018-05-02T01:20:07.725Z,53.13
2018-05-02T01:21:07.719Z,53.31
2018-05-02T01:22:07.710Z,53.03
2018-05-02T01:23:07.698Z,53.31
2018-05-02T01:24:07.689Z,53.31
2018-05-02T01:25:07.693Z,52.55
2018-05-02T01:26:07.679Z,53.22
2018-05-02T01:27:07.677Z,53.13
2018-05-02T01:28:07.672Z,53.13
2018-05-02T01:29:07.682Z,52.83
2018-05-02T01:30:07.656Z,52.73
2018-05-02T01:31:07.649Z,52.45
2018-05-02T01:32:07.644Z,52.55
2018-05-02T01:33:07.638Z,52.83
2018-05-02T01:34:07.632Z,52.73
2018-05-02T01:35:07.625Z,52.64
2018-05-02T01:36:07.618Z,52.64
2018-05-02T01:37:07.612Z,52.35
2018-05-02T01:38:07.612Z,52.64
2018-05-02T01:39:07.600Z,52.35
2018-05-02T01:40:07.594Z,52.55
2018-05-02T01:41:07.584Z,52.64
2018-05-02T01:42:07.581Z,52.45
2018-05-02T01:43:07.577Z,52.55
2018-05-02T01:44:07.577Z,52.64
2018-05-02T01:45:07.564Z,52.35
2018-05-02T01:46:07.555Z,52.64
2018-05-02T01:47:07.547Z,52.45
2018-05-02T01:48:07.542Z,52.42
2018-05-02T01:49:07.537Z,52.55
2018-05-02T01:50:07.530Z,52.55
2018-05-02T01:51:07.526Z,52.64
2018-05-02T01:52:07.517Z,52.55
2018-05-02T01:53:07.514Z,52.55
2018-05-02T01:54:07.502Z,52.35
2018-05-02T01:55:07.502Z,52.73
2018-05-02T01:56:07.491Z,52.64
2018-05-02T01:57:07.486Z,52.83
2018-05-02T01:58:07.486Z,52.55
2018-05-02T01:59:07.475Z,52.73
2018-05-02T02:00:07.467Z,52.61
2018-05-02T02:01:07.463Z,52.73
2018-05-02T02:02:07.450Z,52.55
2018-05-02T02:03:07.446Z,52.73
2018-05-02T02:04:07.441Z,52.64
2018-05-02T02:05:07.439Z,52.83
2018-05-02T02:06:07.442Z,52.45
2018-05-02T02:07:07.422Z,52.52
2018-05-02T02:08:07.414Z,52.55
2018-05-02T02:09:07.411Z,52.55
2018-05-02T02:10:07.403Z,52.64
2018-05-02T02:11:07.399Z,52.61
2018-05-02T02:12:07.390Z,52.55
2018-05-02T02:13:07.390Z,52.45
2018-05-02T02:14:07.379Z,53.13
2018-05-02T02:15:07.373Z,53.13
2018-05-02T02:16:07.366Z,52.83
2018-05-02T02:17:07.356Z,53.22
2018-05-02T02:18:07.351Z,53.29
2018-05-02T02:19:07.353Z,53.22
2018-05-02T02:20:07.342Z,53.03
2018-05-02T02:21:07.353Z,52.93
2018-05-02T02:22:07.329Z,52.83
2018-05-02T02:23:07.408Z,52.83
2018-05-02T02:24:07.316Z,52.93
2018-05-02T02:25:07.312Z,52.64
2018-05-02T02:26:07.303Z,53.00
2018-05-02T02:27:07.396Z,53.09
2018-05-02T02:28:07.293Z,52.61
2018-05-02T02:29:07.332Z,52.93
2018-05-02T02:30:07.277Z,52.93
2018-05-02T02:31:07.293Z,52.91
2018-05-02T02:32:07.262Z,52.91
2018-05-02T02:33:07.280Z,52.91
2018-05-02T02:34:07.336Z,53.13
2018-05-02T02:35:07.291Z,53.09
2018-05-02T02:36:07.236Z,52.91
2018-05-02T02:37:07.251Z,53.09
2018-05-02T02:38:07.227Z,53.00
2018-05-02T02:39:07.252Z,53.00
2018-05-02T02:40:07.214Z,53.09
2018-05-02T02:41:07.210Z,52.71
2018-05-02T02:42:07.204Z,53.00
2018-05-02T02:43:07.200Z,53.00
2018-05-02T02:44:07.186Z,53.09
2018-05-02T02:45:07.180Z,53.19
2018-05-02T02:46:07.174Z,53.09
2018-05-02T02:47:07.174Z,53.09
2018-05-02T02:48:07.158Z,53.09
2018-05-02T02:49:07.155Z,53.09
2018-05-02T02:50:07.155Z,53.09
2018-05-02T02:51:07.145Z,52.91
2018-05-02T02:52:07.145Z,52.91
2018-05-02T02:53:07.130Z,52.93
2018-05-02T02:54:07.126Z,52.91
2018-05-02T02:55:07.117Z,52.81
2018-05-02T02:56:07.110Z,53.00
2018-05-02T02:57:07.102Z,53.13
2018-05-02T02:58:07.097Z,52.91
2018-05-02T02:59:07.081Z,53.03
2018-05-02T03:00:07.079Z,53.13
2018-05-02T03:01:07.079Z,52.93
2018-05-02T03:02:07.071Z,52.93
2018-05-02T03:03:07.067Z,52.93
2018-05-02T03:04:07.075Z,53.13
2018-05-02T03:05:07.050Z,52.61
2018-05-02T03:06:07.048Z,53.03
2018-05-02T03:07:07.038Z,53.00
2018-05-02T03:08:07.032Z,53.03
2018-05-02T03:09:07.027Z,52.83
2018-05-02T03:10:07.020Z,53.22
2018-05-02T03:11:07.020Z,53.03
2018-05-02T03:12:07.007Z,53.00
2018-05-02T03:13:07.001Z,53.09
2018-05-02T03:14:06.994Z,52.93
2018-05-02T03:15:06.983Z,52.91
2018-05-02T03:16:06.978Z,52.93
2018-05-02T03:17:06.975Z,53.00
2018-05-02T03:18:06.974Z,52.71
2018-05-02T03:19:06.970Z,52.81
2018-05-02T03:20:06.959Z,52.71
2018-05-02T03:21:06.948Z,52.81
2018-05-02T03:22:06.940Z,52.81
2018-05-02T03:23:06.934Z,52.81
2018-05-02T03:24:06.931Z,52.81
2018-05-02T03:25:06.921Z,52.61
2018-05-02T03:26:06.921Z,52.81
2018-05-02T03:27:06.919Z,52.61
2018-05-02T03:28:06.911Z,53.03
2018-05-02T03:29:06.898Z,53.00
2018-05-02T03:30:06.891Z,52.81
2018-05-02T03:31:06.890Z,52.73
2018-05-02T03:32:06.879Z,53.00
2018-05-02T03:33:06.873Z,53.00
2018-05-02T03:34:06.864Z,53.00
2018-05-02T03:35:06.859Z,53.22
2018-05-02T03:36:06.849Z,53.22
2018-05-02T03:37:06.846Z,53.13
2018-05-02T03:38:06.839Z,53.00
2018-05-02T03:39:06.834Z,52.83
2018-05-02T03:40:06.827Z,52.83
2018-05-02T03:41:06.828Z,53.31
2018-05-02T03:42:06.814Z,53.19
2018-05-02T03:43:06.806Z,53.77
2018-05-02T03:44:06.800Z,53.70
2018-05-02T03:45:06.804Z,53.31
2018-05-02T03:46:07.064Z,53.51
2018-05-02T03:47:06.779Z,53.41
2018-05-02T03:48:06.778Z,53.61
2018-05-02T03:49:06.777Z,53.80
2018-05-02T03:50:06.762Z,53.99
2018-05-02T03:51:06.755Z,53.80
2018-05-02T03:52:06.747Z,53.89
2018-05-02T03:53:06.746Z,53.80
2018-05-02T03:54:06.737Z,53.70
2018-05-02T03:55:06.730Z,53.61
2018-05-02T03:56:06.728Z,53.29
2018-05-02T03:57:06.717Z,53.29
2018-05-02T03:58:06.708Z,52.81
2018-05-02T03:59:06.703Z,53.09
2018-05-02T04:00:06.693Z,52.61
2018-05-02T04:01:06.690Z,52.52
2018-05-02T04:02:06.680Z,52.13
2018-05-02T04:03:06.671Z,52.04
2018-05-02T04:04:06.671Z,52.33
2018-05-02T04:05:06.658Z,52.04
2018-05-02T04:06:06.648Z,52.33
2018-05-02T04:07:06.643Z,51.75
2018-05-02T04:08:06.643Z,51.46
2018-05-02T04:09:06.628Z,51.65
2018-05-02T04:10:06.620Z,51.68
2018-05-02T04:11:06.614Z,51.56
2018-05-02T04:12:06.605Z,51.17
2018-05-02T04:13:06.599Z,51.00
2018-05-02T04:14:06.595Z,51.10
2018-05-02T04:15:06.586Z,51.39
2018-05-02T04:16:06.573Z,51.29
2018-05-02T04:17:06.568Z,50.81
2018-05-02T04:18:06.560Z,50.90
2018-05-02T04:19:06.554Z,50.71
2018-05-02T04:20:06.545Z,50.81
2018-05-02T04:21:06.535Z,50.42
2018-05-02T04:22:06.530Z,50.90
2018-05-02T04:23:06.519Z,50.81
2018-05-02T04:24:06.516Z,50.42
2018-05-02T04:25:06.504Z,50.42
2018-05-02T04:26:06.562Z,50.52
2018-05-02T04:27:06.495Z,50.32
2018-05-02T04:28:06.486Z,50.32
2018-05-02T04:29:06.475Z,50.45
2018-05-02T04:30:06.469Z,50.71
2018-05-02T04:31:06.456Z,50.32
2018-05-02T04:32:06.451Z,50.23
2018-05-02T04:33:06.448Z,50.13
2018-05-02T04:34:06.434Z,49.77
2018-05-02T04:35:06.427Z,49.87
2018-05-02T04:36:06.418Z,49.75
2018-05-02T04:37:06.410Z,49.84
2018-05-02T04:38:06.403Z,49.84
2018-05-02T04:39:06.397Z,50.04
2018-05-02T04:40:06.390Z,49.96
2018-05-02T04:41:06.387Z,49.87
2018-05-02T04:42:06.372Z,49.75
2018-05-02T04:43:06.363Z,49.58
2018-05-02T04:44:06.356Z,49.96
2018-05-02T04:45:06.350Z,49.87
2018-05-02T04:46:06.340Z,49.75
2018-05-02T04:47:06.334Z,49.77
2018-05-02T04:48:06.326Z,49.84
2018-05-02T04:49:06.324Z,49.75
2018-05-02T04:50:06.308Z,50.04
2018-05-02T04:51:06.300Z,49.77
2018-05-02T04:52:06.294Z,49.65
2018-05-02T04:53:06.292Z,49.68
2018-05-02T04:54:06.278Z,49.68
2018-05-02T04:55:06.300Z,49.68
2018-05-02T04:56:06.285Z,49.68
2018-05-02T04:57:06.254Z,49.87
2018-05-02T04:58:06.253Z,49.77
2018-05-02T04:59:06.239Z,49.68
2018-05-02T05:00:06.235Z,49.58
2018-05-02T05:01:06.227Z,49.48
2018-05-02T05:02:06.217Z,49.19
2018-05-02T05:03:06.207Z,49.10
2018-05-02T05:04:06.226Z,49.10
2018-05-02T05:05:06.192Z,49.10
2018-05-02T05:06:06.186Z,49.10
2018-05-02T05:07:06.196Z,49.29
2018-05-02T05:08:06.170Z,49.19
2018-05-02T05:09:06.159Z,49.19
2018-05-02T05:10:06.152Z,49.19
2018-05-02T05:11:06.149Z,49.10
2018-05-02T05:12:06.136Z,49.29
2018-05-02T05:13:06.127Z,49.00
2018-05-02T05:14:06.132Z,49.10
2018-05-02T05:15:06.115Z,49.39
2018-05-02T05:16:06.106Z,49.39
2018-05-02T05:17:06.110Z,49.39
2018-05-02T05:18:06.098Z,49.19
2018-05-02T05:19:06.082Z,49.10
2018-05-02T05:20:06.076Z,49.19
2018-05-02T05:21:06.067Z,49.29
2018-05-02T05:22:06.060Z,49.07
2018-05-02T05:23:06.056Z,49.07
2018-05-02T05:24:06.042Z,49.10
2018-05-02T05:25:06.034Z,49.48
2018-05-02T05:26:06.027Z,49.27
2018-05-02T05:27:06.019Z,49.17
2018-05-02T05:28:06.012Z,49.55
2018-05-02T05:29:06.004Z,49.58
2018-05-02T05:30:05.995Z,49.19
2018-05-02T05:31:05.987Z,49.48
2018-05-02T05:32:05.982Z,49.17
2018-05-02T05:33:05.973Z,49.07
2018-05-02T05:34:05.966Z,49.37
2018-05-02T05:35:05.956Z,49.39
2018-05-02T05:36:05.948Z,49.10
2018-05-02T05:37:05.941Z,49.29
2018-05-02T05:38:05.934Z,49.29
2018-05-02T05:39:05.924Z,49.29
2018-05-02T05:40:05.927Z,49.29
2018-05-02T05:41:05.910Z,49.27
2018-05-02T05:42:05.901Z,49.29
2018-05-02T05:43:05.892Z,49.29
2018-05-02T05:44:05.885Z,49.19
2018-05-02T05:45:05.878Z,49.29
2018-05-02T05:46:05.867Z,49.29
2018-05-02T05:47:05.860Z,49.10
2018-05-02T05:48:05.875Z,49.29
2018-05-02T05:49:05.846Z,49.29
2018-05-02T05:50:05.840Z,49.29
2018-05-02T05:51:05.829Z,49.39
2018-05-02T05:52:05.825Z,49.29
2018-05-02T05:53:05.814Z,49.48
2018-05-02T05:54:05.866Z,49.48
2018-05-02T05:55:05.800Z,49.29
2018-05-02T05:56:05.789Z,49.48
2018-05-02T05:57:05.785Z,49.48
2018-05-02T05:58:05.773Z,49.39
2018-05-02T05:59:05.767Z,49.48
2018-05-02T06:00:05.771Z,49.48
2018-05-02T06:01:05.751Z,49.48
2018-05-02T06:02:05.743Z,49.00
2018-05-02T06:03:05.735Z,49.00
2018-05-02T06:04:05.729Z,49.00
2018-05-02T06:05:05.781Z,49.00
2018-05-02T06:06:05.716Z,49.00
2018-05-02T06:07:05.705Z,49.00
2018-05-02T06:08:05.696Z,49.00
2018-05-02T06:09:05.689Z,48.93
2018-05-02T06:10:05.682Z,49.10
2018-05-02T06:11:05.673Z,49.10
2018-05-02T06:12:05.668Z,49.10
2018-05-02T06:13:05.666Z,49.22
2018-05-02T06:14:05.649Z,49.41
2018-05-02T06:15:05.646Z,49.41
2018-05-02T06:16:05.636Z,49.02
2018-05-02T06:17:05.631Z,48.74
2018-05-02T06:18:05.620Z,48.74
2018-05-02T06:19:05.626Z,48.54
2018-05-02T06:20:05.606Z,48.74
2018-05-02T06:21:05.598Z,48.83
2018-05-02T06:22:05.591Z,48.54
2018-05-02T06:23:05.579Z,48.54
2018-05-02T06:24:05.572Z,48.54
2018-05-02T06:25:05.572Z,48.54
2018-05-02T06:26:05.634Z,48.35
2018-05-02T06:27:05.549Z,48.54
2018-05-02T06:28:05.541Z,48.16
2018-05-02T06:29:05.536Z,48.44
2018-05-02T06:30:05.526Z,48.16
2018-05-02T06:31:05.518Z,48.35
2018-05-02T06:32:05.511Z,48.64
2018-05-02T06:33:05.507Z,48.35
2018-05-02T06:34:05.499Z,48.54
2018-05-02T06:35:05.487Z,48.44
2018-05-02T06:36:05.479Z,48.25
2018-05-02T06:37:05.475Z,48.44
2018-05-02T06:38:05.469Z,48.35
2018-05-02T06:39:05.457Z,48.54
2018-05-02T06:40:05.450Z,48.44
2018-05-02T06:41:05.443Z,48.44
2018-05-02T06:42:05.435Z,48.16
2018-05-02T06:43:05.427Z,48.44
2018-05-02T06:44:05.419Z,48.64
2018-05-02T06:45:05.412Z,48.54
2018-05-02T06:46:05.404Z,48.25
2018-05-02T06:47:05.397Z,48.25
2018-05-02T06:48:05.390Z,48.44
2018-05-02T06:49:05.381Z,48.35
2018-05-02T06:50:05.378Z,48.44
2018-05-02T06:51:05.366Z,48.35
2018-05-02T06:52:05.358Z,48.35
2018-05-02T06:53:05.351Z,48.54
2018-05-02T06:54:05.355Z,48.44
2018-05-02T06:55:05.336Z,48.83
2018-05-02T06:56:05.328Z,48.64
2018-05-02T06:57:05.324Z,48.54
2018-05-02T06:58:05.314Z,48.54
2018-05-02T06:59:05.305Z,48.54
2018-05-02T07:00:05.297Z,48.83
2018-05-02T07:01:05.303Z,48.74
2018-05-02T07:02:05.283Z,48.74
2018-05-02T07:03:05.273Z,48.64
2018-05-02T07:04:05.266Z,48.74
2018-05-02T07:05:05.258Z,49.02
2018-05-02T07:06:05.251Z,48.83
2018-05-02T07:07:05.314Z,48.93
2018-05-02T07:08:05.241Z,48.64
2018-05-02T07:09:05.230Z,48.74
2018-05-02T07:10:05.229Z,48.74
2018-05-02T07:11:05.219Z,48.74
2018-05-02T07:12:05.206Z,48.74
2018-05-02T07:13:05.197Z,48.74
2018-05-02T07:14:05.192Z,48.83
2018-05-02T07:15:05.186Z,48.74
2018-05-02T07:16:05.179Z,48.83
2018-05-02T07:17:05.167Z,48.64
2018-05-02T07:18:05.164Z,48.64
2018-05-02T07:19:05.153Z,48.64
2018-05-02T07:20:05.146Z,48.44
2018-05-02T07:21:05.138Z,48.25
2018-05-02T07:22:05.134Z,48.44
2018-05-02T07:23:05.122Z,48.44
2018-05-02T07:24:05.124Z,48.16
2018-05-02T07:25:05.108Z,48.16
2018-05-02T07:26:05.100Z,48.64
2018-05-02T07:27:05.090Z,48.16
2018-05-02T07:28:05.082Z,48.35
2018-05-02T07:29:05.079Z,48.64
2018-05-02T07:30:05.068Z,48.44
2018-05-02T07:31:05.061Z,48.35
2018-05-02T07:32:05.053Z,48.47
2018-05-02T07:33:05.187Z,48.44
2018-05-02T07:34:05.040Z,48.44
2018-05-02T07:35:05.031Z,48.47
2018-05-02T07:36:05.023Z,48.47
2018-05-02T07:37:05.021Z,48.66
2018-05-02T07:38:05.011Z,48.28
2018-05-02T07:39:05.001Z,48.28
2018-05-02T07:40:04.991Z,48.28
2018-05-02T07:41:04.983Z,48.28
2018-05-02T07:42:04.989Z,48.57
2018-05-02T07:43:04.968Z,48.47
2018-05-02T07:44:04.963Z,48.57
2018-05-02T07:45:04.956Z,48.66
2018-05-02T07:46:04.946Z,48.57
2018-05-02T07:47:04.939Z,48.28
2018-05-02T07:48:04.934Z,47.99
2018-05-02T07:49:04.933Z,48.08
2018-05-02T07:50:04.918Z,48.08
2018-05-02T07:51:04.911Z,48.08
2018-05-02T07:52:04.905Z,48.37
2018-05-02T07:53:04.900Z,48.18
2018-05-02T07:54:04.890Z,48.08
2018-05-02T07:55:04.887Z,47.89
2018-05-02T07:56:04.873Z,47.99
2018-05-02T07:57:04.905Z,48.18
2018-05-02T07:58:04.858Z,48.18
2018-05-02T07:59:04.849Z,47.99
2018-05-02T08:00:04.843Z,47.99
2018-05-02T08:01:04.840Z,48.18
2018-05-02T08:02:04.827Z,48.08
2018-05-02T08:03:04.822Z,47.80
2018-05-02T08:04:04.815Z,47.80
2018-05-02T08:05:04.808Z,47.89
2018-05-02T08:06:04.798Z,48.08
2018-05-02T08:07:04.793Z,48.30
2018-05-02T08:08:04.786Z,48.30
2018-05-02T08:09:04.792Z,48.18
2018-05-02T08:10:04.769Z,48.08
2018-05-02T08:11:04.787Z,48.28
2018-05-02T08:12:04.754Z,48.18
2018-05-02T08:13:04.747Z,48.18
2018-05-02T08:14:04.742Z,48.18
2018-05-02T08:15:04.734Z,48.28
2018-05-02T08:16:04.729Z,48.18
2018-05-02T08:17:04.719Z,48.28
2018-05-02T08:18:04.716Z,48.28
2018-05-02T08:19:04.706Z,48.28
2018-05-02T08:20:04.696Z,48.28
2018-05-02T08:21:04.690Z,48.28
2018-05-02T08:22:04.700Z,48.28
2018-05-02T08:23:04.674Z,48.28
2018-05-02T08:24:04.667Z,48.08
2018-05-02T08:25:04.658Z,48.01
2018-05-02T08:26:04.654Z,48.30
2018-05-02T08:27:04.644Z,48.08
2018-05-02T08:28:04.643Z,47.99
2018-05-02T08:29:04.632Z,48.11
2018-05-02T08:30:04.626Z,48.11
2018-05-02T08:31:04.615Z,47.81
2018-05-02T08:32:04.608Z,48.21
2018-05-02T08:33:04.600Z,47.91
2018-05-02T08:34:04.598Z,48.39
2018-05-02T08:35:04.587Z,48.01
2018-05-02T08:36:04.579Z,48.08
2018-05-02T08:37:04.572Z,48.21
2018-05-02T08:38:04.566Z,47.91
2018-05-02T08:39:04.560Z,47.81
2018-05-02T08:40:04.549Z,48.01
2018-05-02T08:41:04.546Z,48.11
2018-05-02T08:42:04.533Z,48.11
2018-05-02T08:43:04.527Z,48.11
2018-05-02T08:44:04.519Z,47.99
2018-05-02T08:45:04.516Z,48.08
2018-05-02T08:46:04.505Z,48.01
2018-05-02T08:47:04.497Z,48.11
2018-05-02T08:48:04.500Z,47.99
2018-05-02T08:49:04.487Z,47.91
2018-05-02T08:50:04.481Z,48.08
2018-05-02T08:51:04.468Z,47.89
2018-05-02T08:52:04.464Z,47.91
2018-05-02T08:53:04.455Z,47.91
2018-05-02T08:54:04.449Z,48.11
2018-05-02T08:55:04.441Z,47.91
2018-05-02T08:56:04.433Z,47.89
2018-05-02T08:57:04.428Z,47.99
2018-05-02T08:58:04.419Z,47.91
2018-05-02T08:59:04.411Z,47.91
2018-05-02T09:00:04.403Z,48.39
2018-05-02T09:01:04.402Z,48.37
2018-05-02T09:02:04.398Z,48.37
2018-05-02T09:03:04.383Z,48.37
2018-05-02T09:04:04.378Z,47.99
2018-05-02T09:05:04.367Z,47.99
2018-05-02T09:06:04.362Z,48.28
2018-05-02T09:07:04.355Z,48.30
2018-05-02T09:08:04.349Z,48.28
2018-05-02T09:09:04.343Z,48.30
2018-05-02T09:10:04.332Z,48.30
2018-05-02T09:11:04.324Z,48.21
2018-05-02T09:12:04.319Z,48.01
2018-05-02T09:13:04.307Z,48.11
2018-05-02T09:14:04.302Z,47.91
2018-05-02T09:15:04.294Z,48.11
2018-05-02T09:16:04.286Z,48.39
2018-05-02T09:17:04.280Z,48.11
2018-05-02T09:18:04.275Z,47.91
2018-05-02T09:19:04.273Z,48.08
2018-05-02T09:20:04.259Z,48.39
2018-05-02T09:21:04.251Z,47.89
2018-05-02T09:22:04.243Z,48.08
2018-05-02T09:23:04.239Z,48.39
2018-05-02T09:24:04.231Z,47.91
2018-05-02T09:25:04.222Z,48.21
2018-05-02T09:26:04.221Z,48.11
2018-05-02T09:27:04.208Z,47.91
2018-05-02T09:28:04.206Z,48.39
2018-05-02T09:29:04.192Z,48.30
2018-05-02T09:30:04.187Z,47.91
2018-05-02T09:31:04.179Z,48.39
2018-05-02T09:32:04.170Z,48.11
2018-05-02T09:33:04.165Z,47.89
2018-05-02T09:34:04.159Z,48.11
2018-05-02T09:35:04.150Z,47.99
2018-05-02T09:36:04.145Z,47.91
2018-05-02T09:37:04.134Z,48.21
2018-05-02T09:38:04.128Z,48.11
2018-05-02T09:39:04.120Z,48.11
2018-05-02T09:40:04.112Z,48.11
2018-05-02T09:41:04.114Z,47.89
2018-05-02T09:42:04.105Z,47.91
2018-05-02T09:43:04.089Z,48.21
2018-05-02T09:44:04.101Z,48.08
2018-05-02T09:45:04.079Z,48.11
2018-05-02T09:46:04.071Z,48.11
2018-05-02T09:47:04.062Z,48.08
2018-05-02T09:48:04.063Z,48.01
2018-05-02T09:49:04.050Z,48.37
2018-05-02T09:50:04.044Z,47.91
2018-05-02T09:51:04.069Z,48.11
2018-05-02T09:52:04.108Z,47.91
2018-05-02T09:53:04.020Z,47.81
2018-05-02T09:54:04.013Z,48.01
2018-05-02T09:55:04.010Z,48.11
2018-05-02T09:56:04.000Z,48.01
2018-05-02T09:57:03.989Z,47.72
2018-05-02T09:58:04.064Z,48.11
2018-05-02T09:59:03.975Z,48.11
2018-05-02T10:00:03.968Z,48.21
2018-05-02T10:01:03.961Z,48.11
2018-05-02T10:02:03.956Z,48.01
2018-05-02T10:03:03.946Z,48.11
2018-05-02T10:04:03.941Z,48.11
2018-05-02T10:05:03.932Z,47.81
2018-05-02T10:06:03.929Z,48.01
2018-05-02T10:07:03.938Z,47.72
2018-05-02T10:08:03.914Z,47.81
2018-05-02T10:09:03.903Z,47.72
2018-05-02T10:10:03.900Z,47.63
2018-05-02T10:11:03.887Z,47.63
2018-05-02T10:12:03.882Z,47.43
2018-05-02T10:13:03.874Z,47.43
2018-05-02T10:14:03.884Z,47.43
2018-05-02T10:15:03.865Z,47.72
2018-05-02T10:16:03.855Z,47.33
2018-05-02T10:17:03.845Z,47.33
2018-05-02T10:18:03.839Z,47.63
2018-05-02T10:19:03.829Z,47.72
2018-05-02T10:20:03.823Z,47.63
2018-05-02T10:21:03.817Z,47.72
2018-05-02T10:22:03.819Z,47.72
2018-05-02T10:23:03.803Z,47.81
2018-05-02T10:24:03.799Z,47.63
2018-05-02T10:25:03.787Z,47.63
2018-05-02T10:26:03.784Z,47.63
2018-05-02T10:27:03.774Z,47.72
2018-05-02T10:28:03.767Z,47.63
2018-05-02T10:29:03.759Z,47.63
2018-05-02T10:30:03.760Z,47.72
2018-05-02T10:31:03.743Z,47.81
2018-05-02T10:32:03.738Z,47.63
2018-05-02T10:33:03.728Z,47.72
2018-05-02T10:34:03.722Z,47.81
2018-05-02T10:35:03.723Z,47.81
2018-05-02T10:36:03.707Z,48.01
2018-05-02T10:37:03.700Z,48.11
2018-05-02T10:38:03.699Z,47.91
2018-05-02T10:39:03.685Z,47.91
2018-05-02T10:40:03.678Z,48.11
2018-05-02T10:41:03.671Z,48.01
2018-05-02T10:42:03.671Z,48.11
2018-05-02T10:43:03.666Z,48.11
2018-05-02T10:44:03.649Z,47.81
2018-05-02T10:45:03.644Z,47.72
2018-05-02T10:46:03.639Z,47.81
2018-05-02T10:47:03.629Z,47.81
2018-05-02T10:48:03.622Z,47.81
2018-05-02T10:49:03.646Z,48.11
2018-05-02T10:50:03.609Z,48.11
2018-05-02T10:51:03.600Z,47.91
2018-05-02T10:52:03.593Z,47.91
2018-05-02T10:53:03.587Z,47.81
2018-05-02T10:54:03.579Z,47.81
2018-05-02T10:55:03.572Z,47.72
2018-05-02T10:56:03.632Z,47.81
2018-05-02T10:57:03.557Z,47.63
2018-05-02T10:58:03.552Z,47.63
2018-05-02T10:59:03.541Z,47.91
2018-05-02T11:00:03.538Z,47.81
2018-05-02T11:01:03.531Z,47.81
2018-05-02T11:02:03.523Z,47.72
2018-05-02T11:03:03.513Z,47.63
2018-05-02T11:04:03.508Z,47.81
2018-05-02T11:05:03.501Z,47.72
2018-05-02T11:06:03.493Z,47.53
2018-05-02T11:07:03.486Z,47.72
2018-05-02T11:08:03.481Z,47.43
2018-05-02T11:09:03.475Z,47.63
2018-05-02T11:10:03.465Z,47.63
2018-05-02T11:11:03.460Z,47.53
2018-05-02T11:12:03.450Z,47.81
2018-05-02T11:13:03.448Z,47.53
2018-05-02T11:14:03.435Z,47.63
2018-05-02T11:15:03.429Z,47.72
2018-05-02T11:16:03.426Z,47.63
2018-05-02T11:17:03.414Z,47.81
2018-05-02T11:18:03.413Z,47.81
2018-05-02T11:19:03.401Z,47.63
2018-05-02T11:20:03.393Z,47.81
2018-05-02T11:21:03.387Z,47.91
2018-05-02T11:22:03.435Z,48.01
2018-05-02T11:23:03.372Z,47.91
2018-05-02T11:24:03.369Z,47.81
2018-05-02T11:25:03.358Z,47.53
2018-05-02T11:26:03.352Z,47.63
2018-05-02T11:27:03.343Z,47.43
2018-05-02T11:28:03.338Z,47.33
2018-05-02T11:29:03.331Z,47.33
2018-05-02T11:30:03.327Z,47.14
2018-05-02T11:31:03.315Z,47.43
2018-05-02T11:32:03.310Z,47.33
2018-05-02T11:33:03.300Z,47.33
2018-05-02T11:34:03.288Z,47.43
2018-05-02T11:35:03.289Z,47.53
2018-05-02T11:36:03.281Z,47.53
2018-05-02T11:37:03.273Z,47.43
2018-05-02T11:38:03.263Z,47.55
2018-05-02T11:39:03.263Z,47.63
2018-05-02T11:40:03.250Z,47.33
2018-05-02T11:41:03.246Z,47.43
2018-05-02T11:42:03.238Z,47.24
2018-05-02T11:43:03.236Z,47.33
2018-05-02T11:44:03.224Z,47.33
2018-05-02T11:45:03.217Z,47.43
2018-05-02T11:46:03.210Z,47.33
2018-05-02T11:47:03.208Z,47.43
2018-05-02T11:48:03.195Z,47.33
2018-05-02T11:49:03.190Z,47.05
2018-05-02T11:50:03.185Z,47.55
2018-05-02T11:51:03.174Z,47.53
2018-05-02T11:52:03.167Z,47.33
2018-05-02T11:53:03.161Z,47.53
2018-05-02T11:54:03.153Z,47.43
2018-05-02T11:55:03.148Z,47.53
2018-05-02T11:56:03.136Z,47.43
2018-05-02T11:57:03.136Z,47.33
2018-05-02T11:58:03.128Z,47.43
2018-05-02T11:59:03.118Z,47.36
2018-05-02T12:00:03.111Z,47.43
2018-05-02T12:01:03.103Z,47.43
2018-05-02T12:02:03.099Z,47.53
2018-05-02T12:03:03.091Z,47.05
2018-05-02T12:04:03.088Z,47.14
2018-05-02T12:05:03.077Z,47.33
2018-05-02T12:06:03.090Z,47.53
2018-05-02T12:07:03.068Z,47.14
2018-05-02T12:08:03.052Z,47.36
2018-05-02T12:09:03.049Z,47.43
2018-05-02T12:10:03.043Z,47.14
2018-05-02T12:11:03.045Z,47.14
2018-05-02T12:12:03.025Z,47.33
2018-05-02T12:13:03.019Z,47.53
2018-05-02T12:14:03.012Z,47.53
2018-05-02T12:15:03.005Z,47.53
2018-05-02T12:16:03.015Z,47.43
2018-05-02T12:17:02.992Z,47.81
2018-05-02T12:18:02.984Z,47.91
2018-05-02T12:19:02.980Z,47.91
2018-05-02T12:20:02.972Z,47.91
2018-05-02T12:21:02.967Z,47.91
2018-05-02T12:22:02.956Z,48.01
2018-05-02T12:23:02.949Z,48.01
2018-05-02T12:24:02.942Z,47.91
2018-05-02T12:25:02.943Z,47.91
2018-05-02T12:26:02.928Z,47.91
2018-05-02T12:27:02.918Z,47.72
2018-05-02T12:28:02.916Z,48.01
2018-05-02T12:29:02.905Z,48.01
2018-05-02T12:30:02.899Z,48.01
2018-05-02T12:31:02.893Z,47.43
2018-05-02T12:32:02.884Z,47.81
2018-05-02T12:33:02.877Z,47.81
2018-05-02T12:34:02.866Z,47.91
2018-05-02T12:35:02.864Z,47.72
2018-05-02T12:36:02.853Z,47.91
2018-05-02T12:37:02.849Z,47.91
2018-05-02T12:38:02.849Z,48.01
2018-05-02T12:39:02.848Z,47.72
2018-05-02T12:40:02.828Z,48.01
2018-05-02T12:41:02.821Z,47.91
2018-05-02T12:42:02.819Z,47.81
2018-05-02T12:43:02.809Z,47.91
2018-05-02T12:44:02.799Z,48.01
2018-05-02T12:45:02.800Z,47.91
2018-05-02T12:46:02.789Z,47.91
2018-05-02T12:47:02.780Z,48.01
2018-05-02T12:48:02.774Z,47.91
2018-05-02T12:49:02.761Z,47.91
2018-05-02T12:50:02.762Z,47.91
2018-05-02T12:51:02.750Z,48.01
2018-05-02T12:52:02.747Z,47.91